createdAt,value
2019-05-26T00:00:21.042Z,11.27
2019-05-26T00:03:24.903Z,11.33
2019-05-26T00:06:28.761Z,11.39
2019-05-26T00:09:32.633Z,11.37
2019-05-26T00:12:36.440Z,11.35
2019-05-26T00:15:40.292Z,11.36
2019-05-26T00:18:44.109Z,11.51
2019-05-26T00:21:47.943Z,11.46
2019-05-26T00:24:51.806Z,11.38
2019-05-26T00:27:55.621Z,11.34
2019-05-26T00:30:59.471Z,11.49
2019-05-26T00:34:03.389Z,11.56
2019-05-26T00:37:07.333Z,11.55
2019-05-26T00:40:11.897Z,11.57
2019-05-26T00:43:15.788Z,11.55
2019-05-26T00:46:19.712Z,11.56
2019-05-26T00:49:23.713Z,11.65
2019-05-26T00:52:27.705Z,11.45
2019-05-26T00:55:31.694Z,11.59
2019-05-26T00:58:35.522Z,11.63
2019-05-26T01:01:39.427Z,11.48
2019-05-26T01:04:43.250Z,11.47
2019-05-26T01:07:47.072Z,11.49
2019-05-26T01:10:50.882Z,11.55
2019-05-26T01:13:54.871Z,11.36
2019-05-26T01:16:58.936Z,11.46
2019-05-26T01:20:03.035Z,11.51
2019-05-26T01:23:06.984Z,11.47
2019-05-26T01:26:10.814Z,11.47
2019-05-26T01:29:14.637Z,11.54
2019-05-26T01:32:18.534Z,11.51
2019-05-26T01:35:22.420Z,11.50
2019-05-26T01:38:26.540Z,11.38
2019-05-26T01:41:30.378Z,11.54
2019-05-26T01:44:34.207Z,11.42
2019-05-26T01:47:38.140Z,11.48
2019-05-26T01:50:42.018Z,11.28
2019-05-26T01:53:45.852Z,11.46
2019-05-26T01:56:49.670Z,11.55
2019-05-26T01:59:53.568Z,11.43
2019-05-26T02:02:57.473Z,11.35
2019-05-26T02:06:01.389Z,11.42
2019-05-26T02:09:07.378Z,11.46
2019-05-26T02:12:11.195Z,11.47
2019-05-26T02:15:15.692Z,11.35
2019-05-26T02:18:19.578Z,11.22
2019-05-26T02:21:23.422Z,11.17
2019-05-26T02:24:27.302Z,11.23
2019-05-26T02:27:31.138Z,11.08
2019-05-26T02:30:35.031Z,11.06
2019-05-26T02:33:38.852Z,11.21
2019-05-26T02:36:42.757Z,11.29
2019-05-26T02:39:46.565Z,11.03
2019-05-26T02:42:50.507Z,11.24
2019-05-26T02:45:54.467Z,11.08
2019-05-26T02:48:58.282Z,11.15
2019-05-26T02:52:02.098Z,11.06
2019-05-26T02:55:07.785Z,11.07
2019-05-26T02:58:11.749Z,11.11
2019-05-26T03:01:16.129Z,11.16
2019-05-26T03:04:20.193Z,10.91
2019-05-26T03:07:27.058Z,10.88
2019-05-26T03:10:31.022Z,10.93
2019-05-26T03:13:38.000Z,11.11
2019-05-26T03:16:43.743Z,10.92
2019-05-26T03:19:49.758Z,11.00
2019-05-26T03:22:55.671Z,10.99
2019-05-26T03:26:01.876Z,10.97
2019-05-26T03:29:05.760Z,11.00
2019-05-26T03:32:09.609Z,11.10
2019-05-26T03:35:13.691Z,11.12
2019-05-26T03:38:17.531Z,11.26
2019-05-26T03:41:21.369Z,11.20
2019-05-26T03:44:25.209Z,11.11
2019-05-26T03:47:29.006Z,11.04
2019-05-26T03:50:32.804Z,11.03
2019-05-26T03:53:36.640Z,11.24
2019-05-26T03:56:40.448Z,11.18
2019-05-26T03:59:44.269Z,11.35
2019-05-26T04:02:48.085Z,11.24
2019-05-26T04:05:51.993Z,11.37
2019-05-26T04:08:55.817Z,11.33
2019-05-26T04:11:59.616Z,11.26
2019-05-26T04:15:03.904Z,11.52
2019-05-26T04:18:07.809Z,11.33
2019-05-26T04:21:11.618Z,11.46
2019-05-26T04:24:15.513Z,11.54
2019-05-26T04:27:19.397Z,11.60
2019-05-26T04:30:23.360Z,11.44
2019-05-26T04:33:27.168Z,11.54
2019-05-26T04:36:30.985Z,11.55
2019-05-26T04:39:34.948Z,11.47
2019-05-26T04:42:38.861Z,11.61
2019-05-26T04:45:42.757Z,11.65
2019-05-26T04:48:46.593Z,11.69
2019-05-26T04:51:50.410Z,11.63
2019-05-26T04:54:54.354Z,11.65
2019-05-26T04:57:58.263Z,11.71
2019-05-26T05:01:02.114Z,11.68
2019-05-26T05:04:06.085Z,11.73
2019-05-26T05:07:09.911Z,11.86
2019-05-26T05:10:14.089Z,11.95
2019-05-26T05:13:17.927Z,12.22
2019-05-26T05:16:21.732Z,12.20
2019-05-26T05:19:25.576Z,12.18
2019-05-26T05:22:29.482Z,12.28
2019-05-26T05:25:33.285Z,12.29
2019-05-26T05:28:37.090Z,12.27
2019-05-26T05:31:40.916Z,12.29
2019-05-26T05:34:44.719Z,12.41
2019-05-26T05:37:48.647Z,12.29
2019-05-26T05:40:59.350Z,12.32
2019-05-26T05:43:58.100Z,12.23
2019-05-26T05:47:01.928Z,12.34
2019-05-26T05:50:06.528Z,12.39
2019-05-26T05:53:10.421Z,12.26
2019-05-26T05:56:14.231Z,12.29
2019-05-26T05:59:18.073Z,12.48
2019-05-26T06:02:21.899Z,12.31
2019-05-26T06:05:25.801Z,12.44
2019-05-26T06:08:29.662Z,12.42
2019-05-26T06:11:33.482Z,12.41
2019-05-26T06:14:37.315Z,12.41
2019-05-26T06:17:41.242Z,12.32
2019-05-26T06:20:45.233Z,12.34
2019-05-26T06:23:49.072Z,12.29
2019-05-26T06:26:52.911Z,12.28
2019-05-26T06:29:59.204Z,12.34
2019-05-26T06:33:02.303Z,12.21
2019-05-26T06:36:06.295Z,12.25
2019-05-26T06:39:10.122Z,12.23
2019-05-26T06:42:13.949Z,12.31
2019-05-26T06:45:18.313Z,12.34
2019-05-26T06:48:26.586Z,12.28
2019-05-26T06:51:27.804Z,12.39
2019-05-26T06:54:31.662Z,12.34
2019-05-26T06:57:35.797Z,12.32
2019-05-26T07:00:39.737Z,12.49
2019-05-26T07:03:43.715Z,12.42
2019-05-26T07:06:47.656Z,12.34
2019-05-26T07:09:51.702Z,12.39
2019-05-26T07:12:56.661Z,12.41
2019-05-26T07:16:02.191Z,12.52
2019-05-26T07:19:06.200Z,12.46
2019-05-26T07:22:10.251Z,12.55
2019-05-26T07:25:14.329Z,12.48
2019-05-26T07:28:18.449Z,12.58
2019-05-26T07:31:22.345Z,12.58
2019-05-26T07:34:26.331Z,12.60
2019-05-26T07:37:30.437Z,12.73
2019-05-26T07:40:34.349Z,12.67
2019-05-26T07:43:38.496Z,12.81
2019-05-26T07:46:42.546Z,12.85
2019-05-26T07:49:49.997Z,12.96
2019-05-26T07:52:54.258Z,12.97
2019-05-26T07:56:18.770Z,13.04
2019-05-26T07:59:24.045Z,13.06
2019-05-26T08:02:27.992Z,13.04
2019-05-26T08:05:32.240Z,13.10
2019-05-26T08:08:36.142Z,13.17
2019-05-26T08:11:40.061Z,13.25
2019-05-26T08:14:43.871Z,13.25
2019-05-26T08:17:47.740Z,13.25
2019-05-26T08:20:52.544Z,13.28
2019-05-26T08:23:56.428Z,13.22
2019-05-26T08:27:00.330Z,13.30
2019-05-26T08:30:04.893Z,13.39
2019-05-26T08:33:08.857Z,13.52
2019-05-26T08:36:12.736Z,13.41
2019-05-26T08:39:16.592Z,13.56
2019-05-26T08:42:28.771Z,13.57
2019-05-26T08:45:26.218Z,13.53
2019-05-26T08:48:30.120Z,13.51
2019-05-26T08:51:33.934Z,13.52
2019-05-26T08:54:37.781Z,13.65
2019-05-26T08:57:41.601Z,13.68
2019-05-26T09:00:45.491Z,13.78
2019-05-26T09:03:49.329Z,13.82
2019-05-26T09:06:53.231Z,13.78
2019-05-26T09:09:57.064Z,13.69
2019-05-26T09:13:01.729Z,13.68
2019-05-26T09:16:05.677Z,13.90
2019-05-26T09:19:09.524Z,13.96
2019-05-26T09:22:13.373Z,13.92
2019-05-26T09:25:17.318Z,13.93
2019-05-26T09:28:21.162Z,14.02
2019-05-26T09:31:24.968Z,14.05
2019-05-26T09:34:28.870Z,14.03
2019-05-26T09:37:32.682Z,14.11
2019-05-26T09:40:36.522Z,14.07
2019-05-26T09:43:40.343Z,14.21
2019-05-26T09:46:44.200Z,14.25
2019-05-26T09:49:48.108Z,14.22
2019-05-26T09:52:51.953Z,14.15
2019-05-26T09:55:55.806Z,14.22
2019-05-26T09:58:59.632Z,14.17
2019-05-26T10:02:03.544Z,14.19
2019-05-26T10:05:07.934Z,14.13
2019-05-26T10:08:11.844Z,14.18
2019-05-26T10:11:15.720Z,14.20
2019-05-26T10:14:19.556Z,14.32
2019-05-26T10:17:23.511Z,14.26
2019-05-26T10:20:27.396Z,14.23
2019-05-26T10:23:31.246Z,14.28
2019-05-26T10:26:35.042Z,14.37
2019-05-26T10:29:38.882Z,14.35
2019-05-26T10:32:42.803Z,14.40
2019-05-26T10:35:46.636Z,14.37
2019-05-26T10:38:50.465Z,14.32
2019-05-26T10:41:54.273Z,14.48
2019-05-26T10:44:58.089Z,14.55
2019-05-26T10:48:02.004Z,14.50
2019-05-26T10:51:06.991Z,14.61
2019-05-26T10:54:11.161Z,14.50
2019-05-26T10:57:15.049Z,14.53
2019-05-26T11:00:19.319Z,14.39
2019-05-26T11:03:23.128Z,14.39
2019-05-26T11:06:26.929Z,14.50
2019-05-26T11:09:30.781Z,14.30
2019-05-26T11:12:34.666Z,14.39
2019-05-26T11:15:38.546Z,14.34
2019-05-26T11:18:42.393Z,14.35
2019-05-26T11:21:46.231Z,14.40
2019-05-26T11:24:50.053Z,14.34
2019-05-26T11:27:53.951Z,14.37
2019-05-26T11:30:57.863Z,14.38
2019-05-26T11:34:01.763Z,14.40
2019-05-26T11:37:05.788Z,14.37
2019-05-26T11:40:10.340Z,14.22
2019-05-26T11:43:17.040Z,14.40
2019-05-26T11:46:19.815Z,14.37
2019-05-26T11:49:23.629Z,14.28
2019-05-26T11:52:27.438Z,14.17
2019-05-26T11:55:31.349Z,14.28
2019-05-26T11:58:35.172Z,14.21
2019-05-26T12:01:39.054Z,14.19
2019-05-26T12:04:42.910Z,14.34
2019-05-26T12:07:46.716Z,14.36
2019-05-26T12:10:50.602Z,14.35
2019-05-26T12:13:54.501Z,14.36
2019-05-26T12:16:58.398Z,14.46
2019-05-26T12:20:05.129Z,14.46
2019-05-26T12:23:07.958Z,14.37
2019-05-26T12:26:11.782Z,14.49
2019-05-26T12:29:15.692Z,14.53
2019-05-26T12:32:19.616Z,14.18
2019-05-26T12:35:26.437Z,14.36
2019-05-26T12:38:30.267Z,14.44
2019-05-26T12:41:37.178Z,14.47
2019-05-26T12:44:49.134Z,14.42
2019-05-26T12:47:45.398Z,14.45
2019-05-26T12:50:49.290Z,14.49
2019-05-26T12:53:53.238Z,14.47
2019-05-26T12:56:57.096Z,14.52
2019-05-26T13:00:00.999Z,14.51
2019-05-26T13:03:05.645Z,14.38
2019-05-26T13:06:09.693Z,14.36
2019-05-26T13:09:13.925Z,14.40
2019-05-26T13:12:17.906Z,14.48
2019-05-26T13:15:24.217Z,14.47
2019-05-26T13:18:28.096Z,14.43
2019-05-26T13:21:32.330Z,14.50
2019-05-26T13:24:36.457Z,14.29
2019-05-26T13:27:40.306Z,14.38
2019-05-26T13:30:44.330Z,14.36
2019-05-26T13:33:48.375Z,14.24
2019-05-26T13:36:52.329Z,14.25
2019-05-26T13:39:57.699Z,14.38
2019-05-26T13:43:01.696Z,14.29
2019-05-26T13:46:05.681Z,14.29
2019-05-26T13:49:10.183Z,14.40
2019-05-26T13:52:14.112Z,14.26
2019-05-26T13:55:18.615Z,14.35
2019-05-26T13:58:22.931Z,14.27
2019-05-26T14:01:29.034Z,14.21
2019-05-26T14:04:32.943Z,14.31
2019-05-26T14:07:36.874Z,14.31
2019-05-26T14:10:41.064Z,14.27
2019-05-26T14:13:45.122Z,14.27
2019-05-26T14:16:52.227Z,14.31
2019-05-26T14:19:58.173Z,14.03
2019-05-26T14:23:02.311Z,14.17
2019-05-26T14:26:06.353Z,14.27
2019-05-26T14:29:10.312Z,14.19
2019-05-26T14:32:14.510Z,14.04
2019-05-26T14:35:18.605Z,14.14
2019-05-26T14:38:22.669Z,14.20
2019-05-26T14:41:26.649Z,14.21
2019-05-26T14:44:30.721Z,14.34
2019-05-26T14:47:34.858Z,14.19
2019-05-26T14:50:40.851Z,14.24
2019-05-26T14:53:44.553Z,14.23
2019-05-26T14:56:48.719Z,14.31
2019-05-26T14:59:52.923Z,14.23
2019-05-26T15:02:57.127Z,14.25
2019-05-26T15:06:05.890Z,14.42
2019-05-26T15:09:22.405Z,14.41
2019-05-26T15:12:14.173Z,14.42
2019-05-26T15:15:22.336Z,14.42
2019-05-26T15:18:26.416Z,14.51
2019-05-26T15:21:30.536Z,14.44
2019-05-26T15:24:34.487Z,14.52
2019-05-26T15:27:38.901Z,14.41
2019-05-26T15:30:42.874Z,14.50
2019-05-26T15:33:47.049Z,14.54
2019-05-26T15:36:54.327Z,14.57
2019-05-26T15:39:58.456Z,14.55
2019-05-26T15:43:02.496Z,14.53
2019-05-26T15:46:06.594Z,14.47
2019-05-26T15:49:10.797Z,14.43
2019-05-26T15:52:14.753Z,14.45
2019-05-26T15:55:19.214Z,14.41
2019-05-26T15:58:23.717Z,14.44
2019-05-26T16:01:27.893Z,14.44
2019-05-26T16:04:32.048Z,14.41
2019-05-26T16:07:35.975Z,14.35
2019-05-26T16:10:39.938Z,14.43
2019-05-26T16:13:43.884Z,14.33
2019-05-26T16:16:51.136Z,14.31
2019-05-26T16:19:53.247Z,14.25
2019-05-26T16:22:57.194Z,14.26
2019-05-26T16:26:01.058Z,14.31
2019-05-26T16:29:05.405Z,14.44
2019-05-26T16:32:09.419Z,14.23
2019-05-26T16:35:13.709Z,14.31
2019-05-26T16:38:17.583Z,14.34
2019-05-26T16:41:21.470Z,14.46
2019-05-26T16:44:25.479Z,14.47
2019-05-26T16:47:29.314Z,14.49
2019-05-26T16:50:33.277Z,14.45
2019-05-26T16:53:38.412Z,14.50
2019-05-26T16:56:44.792Z,14.56
2019-05-26T16:59:48.746Z,14.49
2019-05-26T17:02:55.013Z,14.54
2019-05-26T17:06:07.591Z,14.48
2019-05-26T17:09:06.288Z,14.37
2019-05-26T17:12:10.266Z,14.46
2019-05-26T17:15:14.423Z,14.42
2019-05-26T17:21:40.062Z,14.52
2019-05-26T17:24:46.483Z,14.35
2019-05-26T17:27:50.483Z,14.38
2019-05-26T17:30:54.460Z,14.52
2019-05-26T17:33:58.339Z,14.52
2019-05-26T17:37:02.156Z,14.42
2019-05-26T17:40:06.356Z,14.47
2019-05-26T17:43:10.150Z,14.53
2019-05-26T17:46:15.228Z,14.51
2019-05-26T17:49:19.265Z,14.44
2019-05-26T17:52:23.091Z,14.54
2019-05-26T17:55:27.332Z,14.55
2019-05-26T17:58:31.206Z,14.54
2019-05-26T18:01:35.035Z,14.52
2019-05-26T18:04:38.840Z,14.53
2019-05-26T18:07:42.747Z,14.41
2019-05-26T18:10:46.716Z,14.45
2019-05-26T18:13:50.593Z,14.42
2019-05-26T18:16:54.384Z,14.45
2019-05-26T18:19:58.217Z,14.37
2019-05-26T18:23:02.122Z,14.31
2019-05-26T18:26:06.023Z,14.48
2019-05-26T18:29:09.867Z,14.51
2019-05-26T18:32:13.880Z,14.44
2019-05-26T18:35:17.830Z,14.47
2019-05-26T18:38:21.650Z,14.49
2019-05-26T18:41:25.476Z,14.51
2019-05-26T18:44:29.311Z,14.40
2019-05-26T18:47:33.153Z,14.44
2019-05-26T18:50:36.960Z,14.42
2019-05-26T18:53:40.927Z,14.49
2019-05-26T18:56:44.835Z,14.50
2019-05-26T18:59:48.663Z,14.42
2019-05-26T19:02:52.528Z,14.46
2019-05-26T19:05:56.419Z,14.49
2019-05-26T19:09:00.767Z,14.45
2019-05-26T19:12:04.850Z,14.55
2019-05-26T19:15:09.206Z,14.46
2019-05-26T19:18:19.784Z,14.52
2019-05-26T19:21:18.721Z,14.55
2019-05-26T19:24:22.572Z,14.49
2019-05-26T19:27:26.431Z,14.51
2019-05-26T19:30:30.240Z,14.44
2019-05-26T19:33:34.189Z,14.56
2019-05-26T19:36:38.013Z,14.48
2019-05-26T19:39:41.861Z,14.45
2019-05-26T19:42:45.687Z,14.51
2019-05-26T19:45:49.587Z,14.48
2019-05-26T19:48:53.398Z,14.49
2019-05-26T19:51:57.238Z,14.35
2019-05-26T19:55:01.113Z,14.45
2019-05-26T19:58:05.573Z,14.39
2019-05-26T20:01:09.738Z,14.45
2019-05-26T20:04:13.553Z,14.51
2019-05-26T20:07:17.374Z,14.47
2019-05-26T20:10:21.768Z,14.40
2019-05-26T20:13:25.582Z,14.43
2019-05-26T20:16:30.868Z,14.39
2019-05-26T20:19:34.998Z,14.47
2019-05-26T20:22:38.941Z,14.42
2019-05-26T20:25:42.877Z,14.42
2019-05-26T20:28:46.697Z,14.45
2019-05-26T20:31:50.571Z,14.48
2019-05-26T20:34:54.433Z,14.40
2019-05-26T20:37:58.261Z,14.35
2019-05-26T20:41:02.214Z,14.53
2019-05-26T20:44:06.192Z,14.42
2019-05-26T20:47:10.035Z,14.43
2019-05-26T20:50:27.993Z,14.41
2019-05-26T20:53:20.754Z,14.38
2019-05-26T20:56:24.666Z,14.39
2019-05-26T20:59:28.565Z,14.36
2019-05-26T21:02:32.434Z,14.24
2019-05-26T21:05:36.347Z,14.26
2019-05-26T21:08:40.204Z,14.30
2019-05-26T21:11:44.185Z,14.31
2019-05-26T21:14:48.023Z,14.38
2019-05-26T21:17:51.857Z,14.19
2019-05-26T21:20:55.761Z,14.22
2019-05-26T21:23:59.632Z,14.21
2019-05-26T21:27:03.586Z,14.14
2019-05-26T21:30:07.928Z,14.18
2019-05-26T21:33:11.741Z,14.08
2019-05-26T21:36:15.662Z,14.13
2019-05-26T21:39:19.601Z,14.21
2019-05-26T21:42:23.419Z,14.06
2019-05-26T21:45:27.263Z,14.08
2019-05-26T21:48:34.605Z,14.08
2019-05-26T21:51:36.752Z,14.09
2019-05-26T21:54:41.413Z,14.15
2019-05-26T21:57:45.469Z,14.02
2019-05-26T22:00:50.508Z,14.11
2019-05-26T22:03:54.390Z,14.07
2019-05-26T22:06:58.278Z,14.07
2019-05-26T22:10:02.121Z,14.13
2019-05-26T22:13:06.130Z,14.10
2019-05-26T22:16:10.065Z,14.11
2019-05-26T22:19:13.929Z,14.14
2019-05-26T22:22:17.770Z,14.05
2019-05-26T22:25:21.620Z,14.07
2019-05-26T22:28:25.481Z,14.09
2019-05-26T22:31:29.370Z,14.00
2019-05-26T22:34:33.189Z,14.02
2019-05-26T22:37:37.017Z,13.98
2019-05-26T22:40:40.913Z,14.02
2019-05-26T22:43:44.782Z,14.12
2019-05-26T22:46:48.610Z,14.03
2019-05-26T22:49:52.507Z,13.93
2019-05-26T22:52:56.372Z,13.97
2019-05-26T22:56:00.207Z,14.11
2019-05-26T22:59:04.115Z,14.07
2019-05-26T23:02:08.095Z,14.09
2019-05-26T23:05:12.199Z,14.05
2019-05-26T23:08:16.835Z,14.01
2019-05-26T23:11:20.663Z,14.06
2019-05-26T23:14:24.506Z,14.01
2019-05-26T23:17:28.394Z,14.08
2019-05-26T23:20:32.235Z,14.02
2019-05-26T23:23:36.154Z,13.90
2019-05-26T23:26:39.999Z,13.92
2019-05-26T23:29:43.819Z,14.00
2019-05-26T23:32:47.644Z,13.95
2019-05-26T23:35:51.555Z,14.00
2019-05-26T23:38:55.395Z,13.91
2019-05-26T23:41:59.262Z,13.95
2019-05-26T23:45:03.097Z,13.81
2019-05-26T23:48:06.946Z,13.86
2019-05-26T23:51:10.801Z,13.92
2019-05-26T23:54:14.611Z,13.84
2019-05-26T23:57:18.431Z,13.84
